createdAt,value
2023-05-14T00:01:51.975Z,10.27
2023-05-14T00:04:22.413Z,10.29
2023-05-14T00:06:49.678Z,10.29
2023-05-14T00:09:17.162Z,10.26
2023-05-14T00:11:44.613Z,10.22
2023-05-14T00:14:12.200Z,10.25
2023-05-14T00:16:39.453Z,10.21
2023-05-14T00:19:07.050Z,10.25
2023-05-14T00:21:34.331Z,10.32
2023-05-14T00:24:01.593Z,10.22
2023-05-14T00:26:29.064Z,10.22
2023-05-14T00:28:56.272Z,10.19
2023-05-14T00:31:23.583Z,10.21
2023-05-14T00:33:51.278Z,10.19
2023-05-14T00:36:18.460Z,10.15
2023-05-14T00:38:45.756Z,10.13
2023-05-14T00:41:13.195Z,10.10
2023-05-14T00:43:40.680Z,10.14
2023-05-14T00:46:09.959Z,10.08
2023-05-14T00:48:37.516Z,10.07
2023-05-14T00:51:04.864Z,10.06
2023-05-14T00:53:32.057Z,10.15
2023-05-14T00:55:59.662Z,10.15
2023-05-14T00:58:26.918Z,10.19
2023-05-14T01:00:54.257Z,10.26
2023-05-14T01:03:21.934Z,10.21
2023-05-14T01:05:49.107Z,10.23
2023-05-14T01:08:26.026Z,10.21
2023-05-14T01:11:00.698Z,10.25
2023-05-14T01:13:34.520Z,10.27
2023-05-14T01:16:02.923Z,10.23
2023-05-14T01:18:31.341Z,10.20
2023-05-14T01:20:58.730Z,10.36
2023-05-14T01:23:26.398Z,10.30
2023-05-14T01:25:53.582Z,10.27
2023-05-14T01:28:25.328Z,10.26
2023-05-14T01:31:07.076Z,10.20
2023-05-14T01:33:35.484Z,10.23
2023-05-14T01:36:03.795Z,10.29
2023-05-14T01:38:34.169Z,10.31
2023-05-14T01:41:01.491Z,10.34
2023-05-14T01:43:30.192Z,10.33
2023-05-14T01:45:57.376Z,10.41
2023-05-14T01:48:25.817Z,10.39
2023-05-14T01:50:53.307Z,10.32
2023-05-14T01:53:20.756Z,10.33
2023-05-14T01:55:48.201Z,10.31
2023-05-14T01:58:15.741Z,10.35
2023-05-14T02:00:43.953Z,10.50
2023-05-14T02:03:11.798Z,10.52
2023-05-14T02:05:39.077Z,10.45
2023-05-14T02:08:06.278Z,10.48
2023-05-14T02:10:33.833Z,10.54
2023-05-14T02:13:01.386Z,10.57
2023-05-14T02:15:28.635Z,10.62
2023-05-14T02:17:55.824Z,10.56
2023-05-14T02:20:23.494Z,10.66
2023-05-14T02:22:50.870Z,10.64
2023-05-14T02:25:18.057Z,10.59
2023-05-14T02:27:45.910Z,10.53
2023-05-14T02:30:13.407Z,10.58
2023-05-14T02:32:40.968Z,10.63
2023-05-14T02:35:09.251Z,10.59
2023-05-14T02:37:37.620Z,10.64
2023-05-14T02:40:05.374Z,10.56
2023-05-14T02:42:32.819Z,10.53
2023-05-14T02:45:00.031Z,10.53
2023-05-14T02:47:27.300Z,10.47
2023-05-14T02:49:54.773Z,10.50
2023-05-14T02:52:22.196Z,10.61
2023-05-14T02:54:49.553Z,10.55
2023-05-14T02:57:17.011Z,10.48
2023-05-14T02:59:44.126Z,10.45
2023-05-14T03:02:11.768Z,10.45
2023-05-14T03:04:40.051Z,10.38
2023-05-14T03:07:07.399Z,10.33
2023-05-14T03:09:36.009Z,10.33
2023-05-14T03:12:05.080Z,10.30
2023-05-14T03:14:32.520Z,10.29
2023-05-14T03:16:59.719Z,10.30
2023-05-14T03:19:27.254Z,10.38
2023-05-14T03:21:54.587Z,10.39
2023-05-14T03:24:21.751Z,10.37
2023-05-14T03:26:49.221Z,10.41
2023-05-14T03:29:18.200Z,10.41
2023-05-14T03:31:45.375Z,10.48
2023-05-14T03:34:12.868Z,10.49
2023-05-14T03:36:40.115Z,10.71
2023-05-14T03:39:07.288Z,10.61
2023-05-14T03:41:36.458Z,10.54
2023-05-14T03:44:03.602Z,10.61
2023-05-14T03:46:30.796Z,10.58
2023-05-14T03:48:58.547Z,10.62
2023-05-14T03:51:25.974Z,10.64
2023-05-14T03:53:53.069Z,10.63
2023-05-14T03:56:20.842Z,10.71
2023-05-14T03:58:47.992Z,10.67
2023-05-14T04:01:15.485Z,10.76
2023-05-14T04:03:43.268Z,10.77
2023-05-14T04:06:11.154Z,10.80
2023-05-14T04:08:38.340Z,10.68
2023-05-14T04:11:06.083Z,10.70
2023-05-14T04:13:33.241Z,10.70
2023-05-14T04:16:00.647Z,10.75
2023-05-14T04:18:28.335Z,10.68
2023-05-14T04:20:55.782Z,10.76
2023-05-14T04:23:22.967Z,10.71
2023-05-14T04:25:50.374Z,10.77
2023-05-14T04:28:17.476Z,10.66
2023-05-14T04:30:45.771Z,10.63
2023-05-14T04:33:13.262Z,10.74
2023-05-14T04:35:40.540Z,10.70
2023-05-14T04:38:07.685Z,10.62
2023-05-14T04:40:35.222Z,10.88
2023-05-14T04:43:02.377Z,10.79
2023-05-14T04:45:29.542Z,10.68
2023-05-14T04:47:57.004Z,10.68
2023-05-14T04:50:24.379Z,10.63
2023-05-14T04:52:51.764Z,10.59
2023-05-14T04:55:19.222Z,10.60
2023-05-14T04:57:46.361Z,10.57
2023-05-14T05:00:13.963Z,10.57
2023-05-14T05:02:41.676Z,10.54
2023-05-14T05:05:09.561Z,10.59
2023-05-14T05:07:36.786Z,10.61
2023-05-14T05:10:04.506Z,10.68
2023-05-14T05:12:31.824Z,10.66
2023-05-14T05:14:59.144Z,10.74
2023-05-14T05:17:26.744Z,10.64
2023-05-14T05:19:53.950Z,10.77
2023-05-14T05:22:21.365Z,10.91
2023-05-14T05:24:50.095Z,10.80
2023-05-14T05:27:17.397Z,10.81
2023-05-14T05:29:44.745Z,10.73
2023-05-14T05:32:12.177Z,10.77
2023-05-14T05:34:39.312Z,10.70
2023-05-14T05:37:06.453Z,10.85
2023-05-14T05:39:35.216Z,10.76
2023-05-14T05:42:02.809Z,10.83
2023-05-14T05:44:30.039Z,10.76
2023-05-14T05:46:57.903Z,10.94
2023-05-14T05:49:25.140Z,10.89
2023-05-14T05:51:52.267Z,10.84
2023-05-14T05:54:19.845Z,10.86
2023-05-14T05:56:46.980Z,10.74
2023-05-14T05:59:14.159Z,10.67
2023-05-14T06:01:43.546Z,10.74
2023-05-14T06:04:11.069Z,10.57
2023-05-14T06:06:38.461Z,10.55
2023-05-14T06:09:07.085Z,10.40
2023-05-14T06:11:35.067Z,10.27
2023-05-14T06:14:04.781Z,10.30
2023-05-14T06:16:32.105Z,10.21
2023-05-14T06:18:59.607Z,10.19
2023-05-14T06:21:26.903Z,10.22
2023-05-14T06:23:54.004Z,10.26
2023-05-14T06:26:21.985Z,10.25
2023-05-14T06:28:49.179Z,10.20
2023-05-14T06:31:16.430Z,10.11
2023-05-14T06:33:43.903Z,10.10
2023-05-14T06:36:11.234Z,10.16
2023-05-14T06:38:38.401Z,10.06
2023-05-14T06:41:05.917Z,10.08
2023-05-14T06:43:33.325Z,10.16
2023-05-14T06:46:01.388Z,10.12
2023-05-14T06:48:29.609Z,10.15
2023-05-14T06:50:56.944Z,10.12
2023-05-14T06:53:24.093Z,10.22
2023-05-14T06:55:51.642Z,10.21
2023-05-14T06:58:18.835Z,10.23
2023-05-14T07:00:46.079Z,10.30
2023-05-14T07:03:13.561Z,10.40
2023-05-14T07:05:41.385Z,10.41
2023-05-14T07:08:08.607Z,10.53
2023-05-14T07:10:36.036Z,10.68
2023-05-14T07:13:03.693Z,10.68
2023-05-14T07:15:31.345Z,10.74
2023-05-14T07:17:59.004Z,10.88
2023-05-14T07:20:26.461Z,11.06
2023-05-14T07:22:54.226Z,11.05
2023-05-14T07:25:22.334Z,11.13
2023-05-14T07:27:49.552Z,11.40
2023-05-14T07:30:16.725Z,11.36
2023-05-14T07:32:44.818Z,11.54
2023-05-14T07:35:12.084Z,11.42
2023-05-14T07:37:39.414Z,11.59
2023-05-14T07:40:07.487Z,11.60
2023-05-14T07:42:36.983Z,11.52
2023-05-14T07:45:05.391Z,11.66
2023-05-14T07:47:33.324Z,11.80
2023-05-14T07:50:00.896Z,11.97
2023-05-14T07:52:28.076Z,11.98
2023-05-14T07:54:55.753Z,11.81
2023-05-14T07:57:22.890Z,11.75
2023-05-14T07:59:50.120Z,11.65
2023-05-14T08:02:17.858Z,11.86
2023-05-14T08:04:45.821Z,11.98
2023-05-14T08:07:13.272Z,12.18
2023-05-14T08:09:40.830Z,12.21
2023-05-14T08:12:08.597Z,12.01
2023-05-14T08:14:35.785Z,11.76
2023-05-14T08:17:03.555Z,11.69
2023-05-14T08:19:31.262Z,11.74
2023-05-14T08:21:58.441Z,11.82
2023-05-14T08:24:26.050Z,11.84
2023-05-14T08:26:53.745Z,11.80
2023-05-14T08:29:21.213Z,11.94
2023-05-14T08:31:54.440Z,11.80
2023-05-14T08:34:24.751Z,11.81
2023-05-14T08:36:52.091Z,11.90
2023-05-14T08:39:19.339Z,11.92
2023-05-14T08:41:46.875Z,11.90
2023-05-14T08:44:39.444Z,11.97
2023-05-14T08:47:07.316Z,11.94
2023-05-14T08:49:47.058Z,11.99
2023-05-14T08:52:16.365Z,12.17
2023-05-14T08:54:43.668Z,12.03
2023-05-14T08:57:11.501Z,12.00
2023-05-14T08:59:39.012Z,12.06
2023-05-14T09:02:07.058Z,12.03
2023-05-14T09:04:35.117Z,12.17
2023-05-14T09:07:04.212Z,11.97
2023-05-14T09:09:31.429Z,11.76
2023-05-14T09:11:58.905Z,11.83
2023-05-14T09:14:26.428Z,11.93
2023-05-14T09:16:54.865Z,11.95
2023-05-14T09:22:24.746Z,12.05
2023-05-14T09:25:09.666Z,12.05
2023-05-14T09:27:37.704Z,12.03
2023-05-14T09:30:13.256Z,12.23
2023-05-14T09:32:46.035Z,12.23
2023-05-14T09:35:21.700Z,12.14
2023-05-14T09:37:52.930Z,12.19
2023-05-14T09:40:23.626Z,12.04
2023-05-14T09:42:51.988Z,12.00
2023-05-14T09:45:19.375Z,12.01
2023-05-14T09:47:46.812Z,11.96
2023-05-14T09:50:14.994Z,11.93
2023-05-14T09:52:42.498Z,11.89
2023-05-14T09:55:11.190Z,11.95
2023-05-14T09:57:39.208Z,11.98
2023-05-14T10:00:09.023Z,11.91
2023-05-14T10:02:38.184Z,11.89
2023-05-14T10:05:06.600Z,11.95
2023-05-14T10:07:39.267Z,11.97
2023-05-14T10:13:04.683Z,11.92
2023-05-14T10:15:44.219Z,11.99
2023-05-14T10:18:13.630Z,11.99
2023-05-14T10:20:43.440Z,12.01
2023-05-14T10:23:11.015Z,12.16
2023-05-14T10:25:38.670Z,12.24
2023-05-14T10:28:06.572Z,12.50
2023-05-14T10:30:33.915Z,12.49
2023-05-14T10:33:09.384Z,12.55
2023-05-14T10:36:09.755Z,12.52
2023-05-14T10:38:41.329Z,12.30
2023-05-14T10:41:15.164Z,12.33
2023-05-14T10:43:44.493Z,12.49
2023-05-14T10:46:13.703Z,12.37
2023-05-14T10:48:44.522Z,12.57
2023-05-14T10:51:13.074Z,12.42
2023-05-14T10:53:51.257Z,12.57
2023-05-14T10:56:19.959Z,12.46
2023-05-14T10:58:50.677Z,12.40
2023-05-14T11:01:50.839Z,12.32
2023-05-14T11:04:24.348Z,12.42
2023-05-14T11:06:53.866Z,12.32
2023-05-14T11:09:22.837Z,12.44
2023-05-14T11:11:50.724Z,12.34
2023-05-14T11:14:18.370Z,12.46
2023-05-14T11:16:47.367Z,12.52
2023-05-14T11:19:14.878Z,12.53
2023-05-14T11:21:42.530Z,12.41
2023-05-14T11:24:11.367Z,12.26
2023-05-14T11:26:38.962Z,12.28
2023-05-14T11:29:07.335Z,12.33
2023-05-14T11:31:42.575Z,12.18
2023-05-14T11:34:14.754Z,12.25
2023-05-14T11:36:42.610Z,12.10
2023-05-14T11:39:10.154Z,12.06
2023-05-14T11:41:37.473Z,12.02
2023-05-14T11:44:06.756Z,11.91
2023-05-14T11:46:35.688Z,11.86
2023-05-14T11:49:06.908Z,11.88
2023-05-14T11:51:34.594Z,11.90
2023-05-14T11:54:04.068Z,11.79
2023-05-14T11:56:31.317Z,11.76
2023-05-14T11:58:58.988Z,11.76
2023-05-14T12:01:26.366Z,11.74
2023-05-14T12:03:54.031Z,11.75
2023-05-14T12:06:21.823Z,11.81
2023-05-14T12:08:49.590Z,11.83
2023-05-14T12:11:21.320Z,11.84
2023-05-14T12:13:48.596Z,11.87
2023-05-14T12:16:17.773Z,11.86
2023-05-14T12:18:45.632Z,11.89
2023-05-14T12:21:13.492Z,11.75
2023-05-14T12:23:40.860Z,11.82
2023-05-14T12:26:09.269Z,11.69
2023-05-14T12:28:43.358Z,11.68
2023-05-14T12:31:11.598Z,11.69
2023-05-14T12:33:39.234Z,11.73
2023-05-14T12:38:37.810Z,11.65
2023-05-14T12:41:05.729Z,11.69
2023-05-14T12:43:33.068Z,11.69
2023-05-14T12:46:04.170Z,11.68
2023-05-14T12:48:32.512Z,11.72
2023-05-14T12:51:00.128Z,11.71
2023-05-14T12:53:28.063Z,11.58
2023-05-14T12:55:56.654Z,11.54
2023-05-14T12:58:27.197Z,11.60
2023-05-14T13:00:55.172Z,11.66
2023-05-14T13:03:23.063Z,11.62
2023-05-14T13:05:54.486Z,11.61
2023-05-14T13:08:25.095Z,11.65
2023-05-14T13:10:53.111Z,11.64
2023-05-14T13:13:20.702Z,11.67
2023-05-14T13:15:49.052Z,11.70
2023-05-14T13:18:18.604Z,11.72
2023-05-14T13:20:47.767Z,11.91
2023-05-14T13:23:16.946Z,11.76
2023-05-14T13:25:44.571Z,11.68
2023-05-14T13:28:12.281Z,11.74
2023-05-14T13:30:39.864Z,11.70
2023-05-14T13:33:07.396Z,11.73
2023-05-14T13:35:40.352Z,11.76
2023-05-14T13:38:12.526Z,11.74
2023-05-14T13:40:40.979Z,11.72
2023-05-14T13:43:29.184Z,11.75
2023-05-14T13:45:57.452Z,11.70
2023-05-14T13:48:25.811Z,11.59
2023-05-14T13:50:53.586Z,11.56
2023-05-14T13:53:22.140Z,11.56
2023-05-14T13:55:56.676Z,11.68
2023-05-14T13:58:28.018Z,11.76
2023-05-14T14:00:56.666Z,11.82
2023-05-14T14:03:24.308Z,11.82
2023-05-14T14:05:52.659Z,11.78
2023-05-14T14:08:23.790Z,11.65
2023-05-14T14:10:55.085Z,11.68
2023-05-14T14:13:23.097Z,11.66
2023-05-14T14:15:50.660Z,11.69
2023-05-14T14:18:18.256Z,11.65
2023-05-14T14:20:45.565Z,11.59
2023-05-14T14:23:12.930Z,11.55
2023-05-14T14:25:40.821Z,11.54
2023-05-14T14:28:10.069Z,11.57
2023-05-14T14:30:38.104Z,11.42
2023-05-14T14:33:05.756Z,11.42
2023-05-14T14:35:33.744Z,11.42
2023-05-14T14:38:01.016Z,11.48
2023-05-14T14:40:30.206Z,11.51
2023-05-14T14:42:57.822Z,11.43
2023-05-14T14:45:25.427Z,11.50
2023-05-14T14:48:37.656Z,11.44
2023-05-14T14:51:06.205Z,11.50
2023-05-14T14:53:34.630Z,11.53
2023-05-14T14:56:02.177Z,11.51
2023-05-14T14:58:29.376Z,11.40
2023-05-14T15:00:57.925Z,11.43
2023-05-14T15:03:26.056Z,11.40
2023-05-14T15:05:53.999Z,11.34
2023-05-14T15:08:26.194Z,11.35
2023-05-14T15:10:54.090Z,11.35
2023-05-14T15:13:21.897Z,11.29
2023-05-14T15:15:50.802Z,11.23
2023-05-14T15:18:19.246Z,11.25
2023-05-14T15:20:46.850Z,11.33
2023-05-14T15:23:15.274Z,11.22
2023-05-14T15:25:42.736Z,11.23
2023-05-14T15:28:10.317Z,11.24
2023-05-14T15:30:37.502Z,11.23
2023-05-14T15:33:07.734Z,11.23
2023-05-14T15:35:36.558Z,11.14
2023-05-14T15:38:03.863Z,11.18
2023-05-14T15:40:33.172Z,11.07
2023-05-14T15:43:00.935Z,11.06
2023-05-14T15:45:28.407Z,11.07
2023-05-14T15:47:55.774Z,11.03
2023-05-14T15:50:23.671Z,11.04
2023-05-14T15:52:51.014Z,11.13
2023-05-14T15:55:18.394Z,11.06
2023-05-14T15:57:46.050Z,11.15
2023-05-14T16:00:14.514Z,11.16
2023-05-14T16:02:42.132Z,11.14
2023-05-14T16:05:09.677Z,11.11
2023-05-14T16:07:37.711Z,11.08
2023-05-14T16:10:06.306Z,11.09
2023-05-14T16:12:33.774Z,11.06
2023-05-14T16:15:01.179Z,11.05
2023-05-14T16:17:29.982Z,11.11
2023-05-14T16:19:57.524Z,11.07
2023-05-14T16:22:24.898Z,11.04
2023-05-14T16:24:52.396Z,11.03
2023-05-14T16:27:19.747Z,11.02
2023-05-14T16:29:47.206Z,11.05
2023-05-14T16:32:16.984Z,11.07
2023-05-14T16:34:49.931Z,11.02
2023-05-14T16:37:19.240Z,11.10
2023-05-14T16:39:46.532Z,11.06
2023-05-14T16:42:14.055Z,11.09
2023-05-14T16:44:41.733Z,11.11
2023-05-14T16:47:09.157Z,11.08
2023-05-14T16:49:36.455Z,11.09
2023-05-14T16:52:04.198Z,11.08
2023-05-14T16:54:31.407Z,11.15
2023-05-14T16:56:58.656Z,11.11
2023-05-14T16:59:26.103Z,11.09
2023-05-14T17:01:53.517Z,11.14
2023-05-14T17:04:21.277Z,11.16
2023-05-14T17:06:49.259Z,11.14
2023-05-14T17:09:17.038Z,11.17
2023-05-14T17:11:44.361Z,11.19
2023-05-14T17:14:11.958Z,11.16
2023-05-14T17:16:40.609Z,11.31
2023-05-14T17:19:08.577Z,11.39
2023-05-14T17:21:36.160Z,11.47
2023-05-14T17:24:03.396Z,11.41
2023-05-14T17:26:30.673Z,11.44
2023-05-14T17:28:58.225Z,11.38
2023-05-14T17:31:25.830Z,11.37
2023-05-14T17:33:53.528Z,11.13
2023-05-14T17:36:21.267Z,11.27
2023-05-14T17:38:48.537Z,11.26
2023-05-14T17:41:15.757Z,11.29
2023-05-14T17:43:43.187Z,11.32
2023-05-14T17:46:10.841Z,11.38
2023-05-14T17:48:37.990Z,11.42
2023-05-14T17:51:05.661Z,11.32
2023-05-14T17:53:32.824Z,11.39
2023-05-14T17:56:00.397Z,11.29
2023-05-14T17:58:28.120Z,11.41
2023-05-14T18:00:56.027Z,11.28
2023-05-14T18:03:24.395Z,11.26
2023-05-14T18:05:53.681Z,11.30
2023-05-14T18:08:21.145Z,11.28
2023-05-14T18:10:50.325Z,11.24
2023-05-14T18:13:17.677Z,11.21
2023-05-14T18:15:45.091Z,11.26
2023-05-14T18:18:17.235Z,11.25
2023-05-14T18:20:44.547Z,11.30
2023-05-14T18:23:12.260Z,11.25
2023-05-14T18:25:40.451Z,11.24
2023-05-14T18:28:07.875Z,11.26
2023-05-14T18:30:36.433Z,11.30
2023-05-14T18:33:04.229Z,11.23
2023-05-14T18:35:32.561Z,11.20
2023-05-14T18:38:00.104Z,11.33
2023-05-14T18:40:27.811Z,11.33
2023-05-14T18:42:56.747Z,11.37
2023-05-14T18:45:24.676Z,11.44
2023-05-14T18:47:52.986Z,11.44
2023-05-14T18:50:20.164Z,11.51
2023-05-14T18:52:47.590Z,11.48
2023-05-14T18:55:15.892Z,11.42
2023-05-14T18:57:43.256Z,11.40
2023-05-14T19:00:11.338Z,11.39
2023-05-14T19:02:39.627Z,11.41
2023-05-14T19:05:08.022Z,11.55
2023-05-14T19:07:35.719Z,11.41
2023-05-14T19:10:03.778Z,11.39
2023-05-14T19:12:32.195Z,11.35
2023-05-14T19:14:59.677Z,11.35
2023-05-14T19:17:29.178Z,11.39
2023-05-14T19:20:04.873Z,11.43
2023-05-14T19:22:32.510Z,11.36
2023-05-14T19:24:59.680Z,11.46
2023-05-14T19:27:27.396Z,11.39
2023-05-14T19:29:55.253Z,11.37
2023-05-14T19:32:22.815Z,11.32
2023-05-14T19:34:51.511Z,11.29
2023-05-14T19:37:19.314Z,11.33
2023-05-14T19:39:46.875Z,11.32
2023-05-14T19:42:14.216Z,11.40
2023-05-14T19:44:42.524Z,11.41
2023-05-14T19:47:10.596Z,11.44
2023-05-14T19:49:38.079Z,11.50
2023-05-14T19:52:05.903Z,11.45
2023-05-14T19:54:33.287Z,11.47
2023-05-14T19:57:00.630Z,11.52
2023-05-14T19:59:29.921Z,11.54
2023-05-14T20:01:57.654Z,11.48
2023-05-14T20:04:26.495Z,11.45
2023-05-14T20:06:53.836Z,11.48
2023-05-14T20:09:23.009Z,11.52
2023-05-14T20:11:50.812Z,11.49
2023-05-14T20:14:18.112Z,11.51
2023-05-14T20:16:47.039Z,11.54
2023-05-14T20:19:14.733Z,11.60
2023-05-14T20:21:42.112Z,11.62
2023-05-14T20:24:09.612Z,11.54
2023-05-14T20:26:37.573Z,11.58
2023-05-14T20:29:04.789Z,11.57
2023-05-14T20:31:32.111Z,11.55
2023-05-14T20:33:59.607Z,11.58
2023-05-14T20:36:26.776Z,11.57
2023-05-14T20:38:53.999Z,11.58
2023-05-14T20:41:22.444Z,11.59
2023-05-14T20:43:49.620Z,11.53
2023-05-14T20:46:16.897Z,11.55
2023-05-14T20:48:44.538Z,11.56
2023-05-14T20:51:11.866Z,11.62
2023-05-14T20:53:39.166Z,11.55
2023-05-14T20:56:06.900Z,11.58
2023-05-14T20:58:35.339Z,11.61
2023-05-14T21:01:03.466Z,11.46
2023-05-14T21:03:31.052Z,11.51
2023-05-14T21:05:58.300Z,11.60
2023-05-14T21:08:25.682Z,11.61
2023-05-14T21:10:53.220Z,11.67
2023-05-14T21:13:20.499Z,11.71
2023-05-14T21:15:47.651Z,11.78
2023-05-14T21:18:15.028Z,11.71
2023-05-14T21:20:42.297Z,11.69
2023-05-14T21:23:09.425Z,11.72
2023-05-14T21:25:37.011Z,11.87
2023-05-14T21:28:04.247Z,11.82
2023-05-14T21:30:31.348Z,11.73
2023-05-14T21:32:58.925Z,11.77
2023-05-14T21:35:26.294Z,11.73
2023-05-14T21:37:53.709Z,11.75
2023-05-14T21:40:21.210Z,11.69
2023-05-14T21:42:48.489Z,11.73
2023-05-14T21:45:15.675Z,11.64
2023-05-14T21:47:43.316Z,11.67
2023-05-14T21:50:10.964Z,11.82
2023-05-14T21:52:38.530Z,11.70
2023-05-14T21:55:06.361Z,11.74
2023-05-14T21:57:34.564Z,11.82
2023-05-14T22:00:03.703Z,11.88
2023-05-14T22:02:32.209Z,11.96
2023-05-14T22:04:59.855Z,11.87
2023-05-14T22:07:27.117Z,11.77
2023-05-14T22:09:54.264Z,11.70
2023-05-14T22:12:21.650Z,11.70
2023-05-14T22:14:49.020Z,11.74
2023-05-14T22:17:16.153Z,11.75
2023-05-14T22:19:43.743Z,11.79
2023-05-14T22:22:10.926Z,11.79
2023-05-14T22:24:38.079Z,11.80
2023-05-14T22:27:05.803Z,11.76
2023-05-14T22:29:32.929Z,11.84
2023-05-14T22:32:00.084Z,11.73
2023-05-14T22:34:27.690Z,11.83
2023-05-14T22:36:54.858Z,11.76
2023-05-14T22:39:22.070Z,12.03
2023-05-14T22:41:55.043Z,11.90
2023-05-14T22:44:23.056Z,11.94
2023-05-14T22:46:50.934Z,12.02
2023-05-14T22:49:18.241Z,11.96
2023-05-14T22:51:45.875Z,11.90
2023-05-14T22:54:13.272Z,11.86
2023-05-14T22:56:40.491Z,11.89
2023-05-14T22:59:11.513Z,11.91
2023-05-14T23:01:39.389Z,11.94
2023-05-14T23:04:06.690Z,11.95
2023-05-14T23:06:34.208Z,12.03
2023-05-14T23:09:01.690Z,12.01
2023-05-14T23:11:29.066Z,11.97
2023-05-14T23:13:56.298Z,11.89
2023-05-14T23:16:24.086Z,11.97
2023-05-14T23:18:51.566Z,12.10
2023-05-14T23:21:18.923Z,11.86
2023-05-14T23:23:46.798Z,11.87
2023-05-14T23:26:14.126Z,11.99
2023-05-14T23:28:41.330Z,11.91
2023-05-14T23:31:08.831Z,11.84
2023-05-14T23:33:36.089Z,11.88
2023-05-14T23:36:03.638Z,11.92
2023-05-14T23:38:31.122Z,11.94
2023-05-14T23:40:58.299Z,11.85
2023-05-14T23:43:25.800Z,11.89
2023-05-14T23:45:53.381Z,11.79
2023-05-14T23:48:20.680Z,11.82
2023-05-14T23:50:47.895Z,11.80
2023-05-14T23:53:15.359Z,11.79
2023-05-14T23:55:42.877Z,11.94
2023-05-14T23:58:10.148Z,11.96
